createdAt,value
2023-01-09T01:01:04.975Z,1206
2023-01-09T01:02:08.032Z,1205
2023-01-09T01:03:21.888Z,1203
2023-01-09T01:04:24.652Z,1201
2023-01-09T01:05:38.375Z,1201
2023-01-09T01:06:51.100Z,1202
2023-01-09T01:07:54.869Z,1200
2023-01-09T01:09:07.562Z,1199
2023-01-09T01:10:20.880Z,1196
2023-01-09T01:11:33.593Z,1194
2023-01-09T01:12:37.364Z,1194
2023-01-09T01:13:50.081Z,1192
2023-01-09T01:15:03.481Z,1194
2023-01-09T01:16:06.252Z,1193
2023-01-09T01:17:19.856Z,1191
2023-01-09T01:18:32.578Z,1190
2023-01-09T01:19:36.388Z,1194
2023-01-09T01:20:49.112Z,1194
2023-01-09T01:22:02.361Z,1193
2023-01-09T01:23:05.155Z,1191
2023-01-09T01:24:18.890Z,1191
2023-01-09T01:25:31.590Z,1189
2023-01-09T01:26:44.914Z,1188
2023-01-09T01:27:47.720Z,1187
2023-01-09T01:29:01.390Z,1187
2023-01-09T01:30:14.108Z,1188
2023-01-09T01:31:17.875Z,1186
2023-01-09T01:32:30.593Z,1187
2023-01-09T01:33:43.939Z,1190
2023-01-09T01:34:47.806Z,1192
2023-01-09T01:36:01.382Z,1194
2023-01-09T01:37:14.103Z,1194
2023-01-09T01:38:17.860Z,1193
2023-01-09T01:40:57.360Z,1193
2023-01-09T01:41:50.179Z,1194
2023-01-09T01:43:03.560Z,1193
2023-01-09T01:44:16.280Z,1192
2023-01-09T01:45:19.986Z,1193
2023-01-09T01:46:32.713Z,1195
2023-01-09T01:47:45.979Z,1197
2023-01-09T01:48:48.732Z,1195
2023-01-09T01:50:02.513Z,1193
2023-01-09T01:51:15.234Z,1191
2023-01-09T01:52:18.992Z,1191
2023-01-09T01:53:31.760Z,1187
2023-01-09T01:54:45.469Z,1186
2023-01-09T01:55:48.245Z,1187
2023-01-09T01:57:01.989Z,1186
2023-01-09T01:58:14.735Z,1186
2023-01-09T01:59:28.512Z,1184
2023-01-09T02:00:31.252Z,1181
2023-01-09T02:01:45.119Z,1180
2023-01-09T02:02:58.008Z,1180
2023-01-09T02:04:01.513Z,1180
2023-01-09T02:05:14.239Z,1179
2023-01-09T02:06:28.009Z,1179
2023-01-09T02:07:30.794Z,1177
2023-01-09T02:08:44.511Z,1178
2023-01-09T02:09:57.227Z,1177
2023-01-09T02:11:01.010Z,1175
2023-01-09T02:12:13.741Z,1173
2023-01-09T02:13:27.515Z,1173
2023-01-09T02:14:30.304Z,1173
2023-01-09T02:15:44.019Z,1169
2023-01-09T02:16:56.800Z,1165
2023-01-09T02:18:10.464Z,1160
2023-01-09T02:19:13.226Z,1162
2023-01-09T02:20:26.488Z,1162
2023-01-09T02:21:39.196Z,1164
2023-01-09T02:22:43.037Z,1164
2023-01-09T02:23:55.762Z,1164
2023-01-09T02:25:09.507Z,1162
2023-01-09T02:26:12.326Z,1158
2023-01-09T02:27:25.996Z,1157
2023-01-09T02:28:38.706Z,1158
2023-01-09T02:29:42.498Z,1157
2023-01-09T02:30:55.240Z,1157
2023-01-09T02:32:08.980Z,1154
2023-01-09T02:33:11.757Z,1153
2023-01-09T02:34:25.505Z,1150
2023-01-09T02:35:38.253Z,1151
2023-01-09T02:36:51.985Z,1146
2023-01-09T02:37:54.781Z,1143
2023-01-09T02:39:08.481Z,1143
2023-01-09T02:40:21.243Z,1142
2023-01-09T02:41:25.015Z,1140
2023-01-09T14:30:55.186Z,794
2023-01-09T14:31:57.712Z,797
2023-01-09T14:33:10.751Z,800
2023-01-09T14:35:38.975Z,808
2023-01-09T14:36:31.504Z,813
2023-01-09T14:37:44.577Z,814
2023-01-09T14:38:56.877Z,814
2023-01-09T14:40:10.152Z,816
2023-01-09T14:41:12.692Z,814
2023-01-09T14:42:25.689Z,817
2023-01-09T14:43:38.000Z,818
2023-01-09T14:44:51.109Z,823
2023-01-09T14:45:53.571Z,828
2023-01-09T14:47:06.583Z,829
2023-01-09T14:48:18.995Z,830
2023-01-09T14:49:22.076Z,834
2023-01-09T14:50:34.392Z,835
2023-01-09T14:51:47.573Z,838
2023-01-09T14:52:59.905Z,842
2023-01-09T14:54:03.099Z,844
2023-01-09T14:55:15.423Z,848
2023-01-09T14:56:28.568Z,853
2023-01-09T14:57:30.937Z,860
2023-01-09T14:58:44.079Z,863
2023-01-09T14:59:56.416Z,867
2023-01-09T15:01:09.612Z,866
2023-01-09T15:02:12.115Z,871
2023-01-09T15:03:25.072Z,874
2023-01-09T15:04:37.348Z,879
2023-01-09T15:05:50.588Z,881
2023-01-09T15:06:52.952Z,883
2023-01-09T15:08:06.087Z,890
2023-01-09T15:09:18.358Z,889
2023-01-09T15:10:21.599Z,892
2023-01-09T15:11:33.929Z,897
2023-01-09T15:12:47.064Z,898
2023-01-09T15:13:49.451Z,904
2023-01-09T15:15:02.567Z,904
2023-01-09T15:16:14.835Z,907
2023-01-09T15:17:28.090Z,909
2023-01-09T15:18:30.471Z,909
2023-01-09T15:19:43.596Z,910
2023-01-09T15:20:57.120Z,911
